Time;durP1;ratioP1;P1;durP2;ratioP2;P2;SDS_P1;SDS_P2;PMS_P1;PMS_P2;Temp;Humidity;BMP_temperature;BMP_pressure;BME280_temperature;BME280_humidity;BME280_pressure;Samples;Min_cycle;Max_cycle;Signal;HPM_P1;HPM_P2
2023/05/31 00:02:14;;;;;;;5.80;3.28;;;10.10;77.20;;;;;;5075437;28;20028;-81
2023/05/31 00:04:39;;;;;;;5.70;3.83;;;10.00;78.20;;;;;;5075775;28;20043;-80
2023/05/31 00:07:06;;;;;;;6.53;3.28;;;9.90;78.90;;;;;;5075605;28;20081;-79
2023/05/31 00:09:32;;;;;;;5.85;3.35;;;9.80;79.60;;;;;;5075230;28;20101;-79
2023/05/31 00:11:57;;;;;;;6.75;3.53;;;9.70;80.90;;;;;;5075396;28;20473;-80
2023/05/31 00:14:23;;;;;;;6.18;3.28;;;9.70;81.10;;;;;;5093539;28;20035;-79
2023/05/31 00:16:49;;;;;;;6.68;4.10;;;9.60;81.40;;;;;;5075320;28;20019;-80
2023/05/31 00:19:15;;;;;;;7.70;3.63;;;9.60;81.30;;;;;;5075387;28;20022;-79
2023/05/31 00:21:40;;;;;;;6.68;3.95;;;9.60;82.30;;;;;;5075186;28;20379;-80
2023/05/31 00:24:06;;;;;;;6.85;3.97;;;9.50;82.60;;;;;;5093457;28;20122;-79
2023/05/31 00:26:32;;;;;;;4.65;3.80;;;9.40;84.30;;;;;;5093267;28;20568;-81
2023/05/31 00:28:57;;;;;;;7.57;3.25;;;9.30;84.70;;;;;;5093389;28;20032;-80
2023/05/31 00:31:23;;;;;;;6.78;3.47;;;9.40;81.90;;;;;;5093317;28;20046;-79
2023/05/31 00:33:49;;;;;;;4.97;2.95;;;9.50;78.70;;;;;;5093310;28;20020;-80
2023/05/31 00:36:15;;;;;;;8.05;3.65;;;9.60;76.70;;;;;;5075341;28;20020;-79
2023/05/31 00:38:40;;;;;;;5.85;2.83;;;9.80;75.10;;;;;;5093330;28;20054;-80
2023/05/31 00:41:09;;;;;;;5.20;3.05;;;9.80;75.40;;;;;;5075164;28;20400;-81
2023/05/31 00:43:35;;;;;;;6.68;3.13;;;9.70;75.70;;;;;;5075145;28;20485;-79
2023/05/31 00:46:01;;;;;;;4.32;2.80;;;9.80;74.10;;;;;;5093264;28;20045;-79
2023/05/31 00:48:26;;;;;;;5.35;2.72;;;9.80;73.90;;;;;;5093144;28;20032;-81
2023/05/31 00:50:52;;;;;;;5.90;2.60;;;9.90;73.90;;;;;;5075144;28;20369;-80
2023/05/31 00:53:19;;;;;;;6.13;2.60;;;10.10;72.50;;;;;;5075115;28;20384;-80
2023/05/31 00:55:45;;;;;;;6.50;3.22;;;10.20;72.00;;;;;;5075112;28;21186;-79
2023/05/31 00:58:11;;;;;;;4.75;3.00;;;10.20;72.00;;;;;;5093131;28;20020;-79
2023/05/31 01:00:37;;;;;;;6.15;3.08;;;10.00;73.80;;;;;;5074808;28;20021;-79
2023/05/31 01:03:03;;;;;;;4.35;3.00;;;9.80;74.40;;;;;;5092977;28;20023;-79
2023/05/31 01:05:29;;;;;;;6.55;2.88;;;9.60;75.70;;;;;;5075391;28;20031;-79
2023/05/31 01:07:54;;;;;;;5.38;3.03;;;9.30;77.20;;;;;;5074841;28;20030;-79
2023/05/31 01:10:20;;;;;;;4.63;3.13;;;9.20;78.70;;;;;;5092905;28;20051;-81
2023/05/31 01:13:21;;;;;;;3.58;2.92;;;9.10;80.00;;;;;;5092956;28;20031;-80
2023/05/31 01:16:20;;;;;;;8.10;3.40;;;9.30;78.50;;;;;;5074846;28;20016;-79
2023/05/31 01:18:54;;;;;;;3.30;2.88;;;9.40;77.70;;;;;;5089448;28;20032;-80
2023/05/31 01:21:32;;;;;;;5.95;3.15;;;9.30;77.90;;;;;;5074729;28;20052;-79
2023/05/31 01:24:57;;;;;;;5.07;2.88;;;9.40;77.60;;;;;;5074926;28;20470;-79
2023/05/31 01:27:23;;;;;;;5.93;3.35;;;9.50;77.20;;;;;;5048117;28;20032;-79
2023/05/31 01:29:49;;;;;;;4.97;2.72;;;9.70;76.30;;;;;;5092580;28;20040;-80
2023/05/31 01:32:16;;;;;;;6.15;3.03;;;9.70;76.10;;;;;;5074686;28;20047;-81
2023/05/31 01:34:45;;;;;;;6.05;3.25;;;9.70;76.30;;;;;;5092812;28;20473;-79
2023/05/31 01:37:11;;;;;;;8.85;3.08;;;9.60;76.50;;;;;;5074583;28;20021;-80
2023/05/31 01:39:37;;;;;;;6.95;3.72;;;9.50;77.70;;;;;;5094368;28;20020;-81
2023/05/31 01:42:04;;;;;;;7.03;3.30;;;9.40;78.50;;;;;;5096342;28;20056;-79
2023/05/31 01:44:32;;;;;;;7.43;3.50;;;9.30;79.70;;;;;;5078032;28;20031;-81
2023/05/31 01:46:59;;;;;;;4.10;3.17;;;9.10;81.50;;;;;;5096161;28;20097;-79
2023/05/31 01:49:25;;;;;;;4.35;3.40;;;9.00;83.40;;;;;;5096158;28;20409;-81
2023/05/31 01:51:51;;;;;;;6.10;3.80;;;8.80;84.80;;;;;;5077898;28;20020;-78
2023/05/31 01:54:17;;;;;;;7.00;3.45;;;8.80;85.60;;;;;;5096048;28;20100;-79
2023/05/31 01:56:45;;;;;;;6.82;3.35;;;8.80;87.00;;;;;;5096022;28;20103;-78
2023/05/31 01:59:12;;;;;;;5.22;3.00;;;8.80;87.50;;;;;;5077851;28;20028;-79
2023/05/31 02:01:38;;;;;;;6.28;3.35;;;8.70;87.30;;;;;;5095997;28;20057;-80
2023/05/31 02:04:04;;;;;;;5.30;3.00;;;8.80;85.80;;;;;;5077800;28;20034;-79
2023/05/31 02:06:31;;;;;;;5.20;3.22;;;8.80;84.80;;;;;;5095906;28;20019;-81
2023/05/31 02:08:57;;;;;;;6.78;3.30;;;8.90;84.10;;;;;;5077304;28;20121;-80
2023/05/31 02:11:23;;;;;;;7.47;3.40;;;8.80;84.70;;;;;;5095731;28;20032;-78
2023/05/31 02:13:48;;;;;;;5.10;3.55;;;8.90;83.60;;;;;;5095724;28;20033;-78
2023/05/31 02:16:14;;;;;;;4.47;3.15;;;8.90;84.50;;;;;;5095743;28;20027;-78
2023/05/31 02:18:40;;;;;;;6.57;4.00;;;9.00;84.10;;;;;;5077541;28;20449;-79
2023/05/31 02:21:06;;;;;;;4.93;3.97;;;9.00;84.20;;;;;;5095639;28;20107;-80
2023/05/31 02:23:31;;;;;;;8.52;3.65;;;9.00;84.70;;;;;;5095523;28;20021;-78
2023/05/31 02:25:57;;;;;;;9.30;3.75;;;9.00;85.30;;;;;;5095473;28;20057;-81
2023/05/31 02:28:22;;;;;;;7.25;3.80;;;9.00;84.20;;;;;;5077193;28;20085;-79
2023/05/31 02:30:58;;;;;;;7.43;4.03;;;9.00;85.20;;;;;;5077272;28;20020;-81
2023/05/31 02:33:25;;;;;;;5.50;3.90;;;9.00;86.50;;;;;;5077097;28;20019;-78
2023/05/31 02:35:51;;;;;;;7.60;3.53;;;8.80;88.50;;;;;;5095299;28;20031;-78
2023/05/31 02:38:18;;;;;;;11.00;4.30;;;8.70;89.70;;;;;;5077172;28;20111;-81
2023/05/31 02:40:43;;;;;;;6.97;3.92;;;8.50;91.20;;;;;;5095295;28;20023;-78
2023/05/31 02:43:10;;;;;;;8.32;3.78;;;8.50;92.50;;;;;;5095264;28;20021;-80
2023/05/31 02:45:35;;;;;;;9.80;3.53;;;8.50;92.90;;;;;;5076947;28;20028;-78
2023/05/31 02:48:04;;;;;;;5.85;3.85;;;8.50;94.10;;;;;;5076877;28;20385;-79
2023/05/31 02:50:31;;;;;;;6.63;3.40;;;8.50;94.90;;;;;;5093787;28;20028;-80
2023/05/31 02:52:56;;;;;;;5.55;4.10;;;8.50;95.70;;;;;;5076835;28;20062;-80
2023/05/31 02:55:22;;;;;;;6.65;3.90;;;8.50;96.10;;;;;;5076689;28;20060;-80
2023/05/31 02:57:48;;;;;;;4.05;3.20;;;8.50;96.20;;;;;;5094804;28;20073;-81
2023/05/31 03:00:14;;;;;;;6.20;3.78;;;8.50;96.80;;;;;;5076728;28;20412;-81
2023/05/31 03:02:40;;;;;;;6.63;3.70;;;8.60;96.30;;;;;;5094818;28;20024;-78
2023/05/31 03:05:08;;;;;;;5.30;3.50;;;8.60;95.70;;;;;;5094774;28;20024;-81
2023/05/31 03:07:35;;;;;;;6.72;3.97;;;8.60;97.20;;;;;;5094572;28;20376;-80
2023/05/31 03:10:01;;;;;;;5.45;3.47;;;8.60;96.90;;;;;;5094585;28;20185;-78
2023/05/31 03:12:26;;;;;;;6.72;3.20;;;8.60;94.80;;;;;;5094645;28;20099;-79
2023/05/31 03:14:52;;;;;;;5.68;3.92;;;8.60;94.30;;;;;;5094753;28;20032;-81
2023/05/31 03:17:18;;;;;;;7.57;4.47;;;8.70;93.90;;;;;;5094556;28;20031;-80
2023/05/31 03:19:43;;;;;;;8.90;4.57;;;8.90;92.50;;;;;;5075890;28;20020;-81
2023/05/31 03:22:09;;;;;;;8.77;3.90;;;9.10;91.60;;;;;;5094300;28;20028;-81
2023/05/31 03:24:35;;;;;;;8.02;3.47;;;9.40;89.70;;;;;;5094331;28;20021;-81
2023/05/31 03:27:00;;;;;;;7.78;3.95;;;9.70;88.30;;;;;;5094217;28;20031;-81
2023/05/31 03:29:26;;;;;;;7.80;4.03;;;10.10;84.50;;;;;;5076072;28;20035;-79
2023/05/31 03:31:51;;;;;;;4.70;3.38;;;10.50;82.30;;;;;;5094149;28;20508;-79
2023/05/31 03:34:18;;;;;;;6.60;3.95;;;10.80;78.10;;;;;;5094392;28;20059;-79
2023/05/31 03:36:43;;;;;;;9.40;4.22;;;11.20;76.60;;;;;;5094218;28;20023;-79
2023/05/31 03:39:09;;;;;;;8.50;3.70;;;11.40;74.40;;;;;;5075988;28;20481;-79
2023/05/31 03:41:34;;;;;;;6.63;4.30;;;11.70;73.40;;;;;;5093947;28;20077;-79
2023/05/31 03:44:00;;;;;;;9.23;3.47;;;11.90;71.80;;;;;;5075963;28;20016;-79
2023/05/31 03:46:25;;;;;;;8.35;3.47;;;12.10;71.30;;;;;;5093957;28;20035;-79
2023/05/31 03:48:51;;;;;;;8.15;3.75;;;12.30;69.80;;;;;;5093954;28;20036;-79
2023/05/31 03:51:17;;;;;;;11.45;3.92;;;12.40;68.70;;;;;;5093899;28;20048;-81
2023/05/31 03:53:43;;;;;;;6.95;3.63;;;12.50;68.20;;;;;;5075630;28;20024;-81
2023/05/31 03:56:08;;;;;;;9.52;3.20;;;12.70;67.80;;;;;;5075804;28;20127;-79
2023/05/31 03:58:34;;;;;;;5.65;3.72;;;12.80;67.20;;;;;;5093763;28;20028;-82
2023/05/31 04:00:59;;;;;;;7.60;4.30;;;13.00;67.40;;;;;;5075642;28;20020;-81
2023/05/31 04:03:25;;;;;;;9.73;4.05;;;13.10;68.60;;;;;;5075334;28;20020;-79
2023/05/31 04:05:51;;;;;;;12.40;3.97;;;13.20;68.00;;;;;;5075538;28;20077;-79
2023/05/31 04:08:17;;;;;;;6.55;4.03;;;13.30;67.50;;;;;;5075485;28;20096;-79
2023/05/31 04:10:43;;;;;;;6.97;3.72;;;13.50;66.90;;;;;;5093495;28;20042;-79
2023/05/31 04:13:08;;;;;;;5.63;3.63;;;13.50;66.50;;;;;;5075997;28;20024;-79
2023/05/31 04:15:34;;;;;;;7.70;3.63;;;13.60;67.30;;;;;;5093633;28;20103;-79
2023/05/31 04:18:00;;;;;;;4.95;3.45;;;13.80;67.20;;;;;;5075497;28;20132;-82
2023/05/31 04:20:26;;;;;;;6.93;3.50;;;13.90;65.90;;;;;;5075401;28;20054;-80
2023/05/31 04:22:53;;;;;;;5.60;3.08;;;14.00;65.50;;;;;;5093386;28;20031;-82
2023/05/31 04:25:22;;;;;;;9.43;4.07;;;14.10;65.00;;;;;;5075296;28;20389;-82
2023/05/31 04:27:49;;;;;;;5.05;2.92;;;14.10;64.30;;;;;;5075287;28;20032;-82
2023/05/31 04:30:15;;;;;;;9.32;4.13;;;14.30;64.60;;;;;;5093332;28;20123;-82
2023/05/31 04:32:40;;;;;;;8.48;3.20;;;14.30;64.00;;;;;;5093381;28;20094;-82
2023/05/31 04:35:08;;;;;;;6.65;3.38;;;14.40;64.30;;;;;;5093730;28;20028;-79
2023/05/31 04:37:34;;;;;;;4.70;2.80;;;14.50;65.00;;;;;;5093287;28;20059;-82
2023/05/31 04:39:59;;;;;;;6.13;3.28;;;14.60;64.40;;;;;;5075172;28;20050;-79
2023/05/31 04:42:26;;;;;;;8.15;3.33;;;14.60;63.70;;;;;;5093234;28;20028;-82
2023/05/31 04:44:58;;;;;;;5.10;3.00;;;14.70;64.00;;;;;;5075009;28;20122;-83
2023/05/31 04:47:29;;;;;;;4.80;2.75;;;14.70;63.40;;;;;;5075104;28;20465;-79
2023/05/31 04:49:56;;;;;;;7.78;3.67;;;14.80;63.20;;;;;;5093210;28;20035;-80
2023/05/31 04:52:27;;;;;;;6.85;2.92;;;14.80;63.60;;;;;;5093168;28;20077;-80
2023/05/31 04:54:56;;;;;;;7.32;3.05;;;14.80;63.30;;;;;;5093409;28;20104;-80
2023/05/31 04:57:28;;;;;;;7.65;3.22;;;14.80;63.60;;;;;;5074991;28;20017;-80
2023/05/31 04:59:58;;;;;;;8.80;3.33;;;14.90;63.50;;;;;;5074936;28;20024;-82
2023/05/31 05:02:23;;;;;;;6.57;2.88;;;15.00;63.80;;;;;;5093065;28;20024;-83
2023/05/31 05:04:49;;;;;;;4.90;2.92;;;15.00;63.10;;;;;;5074875;28;20031;-80
2023/05/31 05:07:16;;;;;;;4.28;2.75;;;15.00;62.50;;;;;;5093025;28;20389;-82
2023/05/31 05:09:42;;;;;;;7.25;2.70;;;15.10;62.40;;;;;;5092275;28;20568;-82
2023/05/31 05:12:09;;;;;;;5.32;2.30;;;15.20;62.40;;;;;;5074781;28;20402;-82
2023/05/31 05:14:34;;;;;;;9.50;3.15;;;15.30;62.50;;;;;;5094498;28;20496;-82
2023/05/31 05:17:00;;;;;;;6.88;2.78;;;15.30;62.00;;;;;;5078486;28;20020;-79
2023/05/31 05:19:26;;;;;;;4.07;2.50;;;15.40;61.80;;;;;;5096852;28;20424;-80
2023/05/31 05:21:51;;;;;;;10.75;3.58;;;15.40;60.70;;;;;;5080106;28;20508;-79
2023/05/31 05:24:17;;;;;;;5.78;2.58;;;15.40;62.00;;;;;;5078700;28;20020;-80
2023/05/31 05:26:44;;;;;;;6.60;2.70;;;15.50;61.10;;;;;;5096558;28;20024;-82
2023/05/31 05:29:11;;;;;;;8.88;3.00;;;15.50;61.20;;;;;;5086192;28;20490;-82
2023/05/31 05:31:37;;;;;;;6.10;4.03;;;15.60;61.60;;;;;;5109399;28;20081;-82
2023/05/31 05:34:02;;;;;;;6.65;3.33;;;15.60;61.80;;;;;;5115768;28;20036;-79
2023/05/31 05:36:28;;;;;;;6.40;3.30;;;15.60;61.20;;;;;;5097462;28;20028;-82
2023/05/31 05:38:55;;;;;;;4.25;2.70;;;15.60;62.10;;;;;;5096536;28;20054;-80
2023/05/31 05:41:21;;;;;;;8.02;2.92;;;15.70;62.60;;;;;;5098408;28;20023;-83
2023/05/31 05:43:46;;;;;;;4.65;3.15;;;15.80;61.20;;;;;;5116666;28;20028;-82
2023/05/31 05:46:12;;;;;;;3.95;2.97;;;16.00;61.40;;;;;;5098046;28;20031;-82
2023/05/31 05:48:37;;;;;;;8.70;2.83;;;16.10;61.50;;;;;;5098422;28;20038;-82
2023/05/31 05:51:03;;;;;;;4.70;2.70;;;16.10;61.90;;;;;;5104461;28;20028;-80
2023/05/31 05:53:29;;;;;;;5.00;3.25;;;16.20;61.00;;;;;;5094004;28;20024;-80
2023/05/31 05:55:54;;;;;;;7.40;2.75;;;16.30;60.60;;;;;;5094249;28;20024;-83
2023/05/31 05:58:20;;;;;;;6.85;3.33;;;16.40;61.50;;;;;;5094079;28;20028;-83
2023/05/31 06:00:47;;;;;;;7.63;2.90;;;16.50;61.50;;;;;;5076069;28;20031;-82
2023/05/31 06:03:13;;;;;;;17.63;4.00;;;16.70;60.30;;;;;;5076999;28;20505;-82
2023/05/31 06:05:40;;;;;;;4.82;2.95;;;16.80;60.30;;;;;;5075755;28;20023;-80
2023/05/31 06:08:06;;;;;;;12.57;2.95;;;16.90;60.20;;;;;;5075747;28;20058;-80
2023/05/31 06:10:32;;;;;;;9.75;3.53;;;17.00;59.60;;;;;;5075444;28;20513;-81
2023/05/31 06:12:57;;;;;;;9.82;2.88;;;17.10;59.10;;;;;;5075791;28;20028;-83
2023/05/31 06:15:23;;;;;;;17.70;3.63;;;17.10;59.00;;;;;;5076546;28;20024;-81
2023/05/31 06:17:49;;;;;;;6.25;2.72;;;17.30;59.50;;;;;;5094533;28;20430;-81
2023/05/31 06:20:15;;;;;;;11.38;2.70;;;17.50;59.00;;;;;;5077646;28;20020;-82
2023/05/31 06:22:41;;;;;;;6.13;3.00;;;17.70;59.10;;;;;;5077438;28;20056;-81
2023/05/31 06:25:07;;;;;;;26.60;4.38;;;17.80;57.70;;;;;;5095404;28;20067;-83
2023/05/31 06:27:33;;;;;;;12.43;2.80;;;17.90;57.50;;;;;;5095806;28;20020;-81
2023/05/31 06:30:00;;;;;;;7.63;3.22;;;17.90;56.70;;;;;;5077258;28;20039;-81
2023/05/31 06:32:29;;;;;;;11.23;3.95;;;17.90;56.60;;;;;;5077370;28;20115;-81
2023/05/31 06:34:54;;;;;;;12.90;3.35;;;18.00;57.00;;;;;;5095459;28;20024;-83
2023/05/31 06:37:24;;;;;;;16.20;4.38;;;18.00;56.40;;;;;;5077169;28;20068;-83
2023/05/31 06:39:50;;;;;;;6.93;2.80;;;18.20;55.90;;;;;;5077202;28;20110;-83
2023/05/31 06:42:16;;;;;;;5.82;2.72;;;18.20;54.00;;;;;;5095384;28;20519;-80
2023/05/31 06:44:42;;;;;;;10.88;2.97;;;18.10;54.10;;;;;;5077255;28;20070;-81
2023/05/31 06:47:08;;;;;;;9.35;3.05;;;18.30;54.50;;;;;;5076998;28;20024;-80
2023/05/31 06:49:34;;;;;;;7.47;2.45;;;18.50;53.90;;;;;;5076896;28;20403;-81
2023/05/31 06:52:00;;;;;;;5.60;2.75;;;18.50;52.50;;;;;;5076989;28;20016;-80
2023/05/31 06:54:27;;;;;;;14.77;2.97;;;18.60;52.40;;;;;;5076973;28;20394;-81
2023/05/31 06:56:53;;;;;;;13.77;3.17;;;18.70;52.40;;;;;;5095039;28;20028;-80
2023/05/31 06:59:19;;;;;;;9.70;2.33;;;18.70;52.30;;;;;;5095079;28;20547;-81
2023/05/31 07:01:44;;;;;;;7.88;2.20;;;18.70;50.90;;;;;;5094948;28;20059;-80
2023/05/31 07:04:10;;;;;;;5.32;2.50;;;18.80;50.50;;;;;;5076754;28;20086;-82
2023/05/31 07:06:37;;;;;;;4.82;2.22;;;18.90;51.80;;;;;;5076671;28;20020;-82
2023/05/31 07:09:04;;;;;;;4.05;2.70;;;19.00;52.50;;;;;;5094476;28;20044;-80
2023/05/31 07:11:29;;;;;;;2.67;2.15;;;19.10;50.90;;;;;;5094855;28;20111;-81
2023/05/31 07:13:59;;;;;;;4.75;2.25;;;19.20;50.80;;;;;;5076528;28;20136;-82
2023/05/31 07:16:25;;;;;;;8.02;3.28;;;19.20;51.50;;;;;;5094626;28;20020;-81
2023/05/31 07:18:50;;;;;;;5.95;2.72;;;19.50;52.50;;;;;;5076473;28;20078;-81
2023/05/31 07:21:16;;;;;;;4.30;2.55;;;19.60;51.10;;;;;;5076491;28;20111;-82
2023/05/31 07:23:41;;;;;;;7.47;2.50;;;19.70;51.00;;;;;;5094498;28;20022;-81
2023/05/31 07:26:07;;;;;;;5.45;2.65;;;19.70;50.60;;;;;;5076514;28;20024;-81
2023/05/31 07:28:33;;;;;;;3.83;2.55;;;19.70;50.10;;;;;;5094231;28;20067;-82
2023/05/31 07:30:58;;;;;;;3.70;1.65;;;19.80;51.00;;;;;;5094370;28;20413;-82
2023/05/31 07:33:24;;;;;;;5.35;2.40;;;20.00;50.50;;;;;;5094219;28;20024;-81
2023/05/31 07:35:50;;;;;;;5.63;2.28;;;20.00;48.90;;;;;;5076071;28;20062;-82
2023/05/31 07:38:15;;;;;;;8.18;2.60;;;19.90;49.10;;;;;;5093569;28;20023;-82
2023/05/31 07:40:41;;;;;;;4.18;2.10;;;19.90;49.00;;;;;;5076110;28;20039;-81
2023/05/31 07:43:07;;;;;;;7.13;2.17;;;19.60;47.80;;;;;;5076049;28;20481;-81
2023/05/31 07:45:33;;;;;;;4.47;2.03;;;19.50;47.40;;;;;;5075982;28;20473;-82
2023/05/31 07:47:59;;;;;;;7.47;1.98;;;19.40;47.20;;;;;;5094109;28;20027;-82
2023/05/31 07:50:25;;;;;;;5.47;2.30;;;19.30;47.60;;;;;;5094107;28;20036;-81
2023/05/31 07:52:51;;;;;;;4.63;2.13;;;19.40;47.20;;;;;;5075720;28;20073;-82
2023/05/31 07:55:17;;;;;;;3.03;2.05;;;19.50;46.20;;;;;;5094059;28;20077;-82
2023/05/31 07:57:43;;;;;;;5.30;1.88;;;19.60;45.60;;;;;;5093917;28;20024;-81
2023/05/31 08:00:13;;;;;;;4.70;2.05;;;19.70;45.30;;;;;;5093859;28;20031;-81
2023/05/31 08:02:40;;;;;;;3.25;1.75;;;19.70;44.20;;;;;;5093817;28;20434;-81
2023/05/31 08:05:07;;;;;;;5.43;2.05;;;19.60;44.40;;;;;;5093836;28;20023;-81
2023/05/31 08:07:33;;;;;;;5.90;2.35;;;19.40;44.50;;;;;;5093774;28;20520;-82
2023/05/31 08:09:58;;;;;;;3.20;1.90;;;19.30;45.20;;;;;;5075516;28;20048;-81
2023/05/31 08:12:24;;;;;;;8.13;2.30;;;19.60;44.70;;;;;;5093628;28;20020;-82
2023/05/31 08:14:50;;;;;;;5.70;1.80;;;19.50;45.40;;;;;;5075586;28;20401;-81
2023/05/31 08:17:15;;;;;;;4.47;2.10;;;19.60;45.00;;;;;;5075354;28;20173;-82
2023/05/31 08:19:41;;;;;;;4.03;1.88;;;19.70;44.80;;;;;;5093699;28;20028;-81
2023/05/31 08:22:07;;;;;;;4.05;2.15;;;19.60;44.50;;;;;;5075454;28;20359;-82
2023/05/31 08:24:33;;;;;;;7.35;2.13;;;19.60;44.70;;;;;;5093537;28;20024;-81
2023/05/31 08:26:59;;;;;;;6.80;2.20;;;19.60;44.50;;;;;;5075374;28;20024;-81
2023/05/31 08:29:25;;;;;;;5.00;1.95;;;19.80;45.00;;;;;;5075146;28;20031;-82
2023/05/31 08:31:51;;;;;;;5.60;2.33;;;20.00;44.40;;;;;;5075446;28;20384;-81
2023/05/31 08:34:18;;;;;;;5.93;2.08;;;20.00;43.20;;;;;;5093588;28;20030;-82
2023/05/31 08:36:44;;;;;;;2.58;1.80;;;19.90;43.90;;;;;;5093479;28;20073;-83
2023/05/31 08:39:10;;;;;;;9.50;1.90;;;19.90;43.70;;;;;;5075345;28;20016;-82
2023/05/31 08:41:47;;;;;;;3.95;2.38;;;20.20;44.50;;;;;;5093288;28;20024;-81
2023/05/31 08:44:14;;;;;;;3.60;2.10;;;20.30;43.60;;;;;;5075199;28;20489;-81
2023/05/31 08:46:42;;;;;;;7.68;2.25;;;20.50;43.30;;;;;;5075175;28;20067;-81
2023/05/31 08:49:12;;;;;;;15.70;2.97;;;20.50;43.60;;;;;;5077926;28;20051;-82
2023/05/31 08:51:40;;;;;;;13.80;2.72;;;20.40;43.10;;;;;;5079260;28;20020;-81
2023/05/31 08:54:07;;;;;;;6.03;2.08;;;20.80;43.80;;;;;;5079337;28;20477;-81
2023/05/31 08:56:34;;;;;;;2.63;1.63;;;20.80;43.30;;;;;;5079179;28;20027;-81
2023/05/31 08:59:00;;;;;;;6.95;2.17;;;20.60;43.10;;;;;;5097282;28;20103;-82
2023/05/31 09:01:27;;;;;;;4.03;1.92;;;20.80;42.90;;;;;;5097138;28;20061;-82
2023/05/31 09:03:53;;;;;;;3.65;1.65;;;21.00;41.70;;;;;;5097241;28;20027;-82
2023/05/31 09:06:19;;;;;;;4.25;1.85;;;21.30;43.00;;;;;;5097205;28;20032;-82
2023/05/31 09:08:45;;;;;;;7.18;2.47;;;21.60;42.90;;;;;;5096759;28;20077;-81
2023/05/31 09:11:12;;;;;;;3.63;1.88;;;21.60;42.30;;;;;;5079065;28;20393;-82
2023/05/31 09:13:37;;;;;;;4.68;2.03;;;21.50;43.00;;;;;;5097107;28;20048;-80
2023/05/31 09:16:03;;;;;;;3.08;1.92;;;20.70;43.50;;;;;;5096620;28;20117;-81
2023/05/31 09:18:36;;;;;;;4.00;1.92;;;20.30;43.70;;;;;;5095156;28;20035;-82
2023/05/31 09:21:08;;;;;;;7.07;2.75;;;20.40;45.00;;;;;;5097982;28;20020;-81
2023/05/31 09:23:34;;;;;;;5.13;2.20;;;20.80;44.70;;;;;;5077563;28;20020;-81
2023/05/31 09:26:00;;;;;;;3.17;2.00;;;21.00;42.50;;;;;;5096518;28;20070;-81
2023/05/31 09:28:26;;;;;;;4.32;1.73;;;21.30;43.30;;;;;;5077561;28;20024;-82
2023/05/31 09:31:06;;;;;;;7.57;2.20;;;21.40;42.30;;;;;;5095730;28;20058;-80
2023/05/31 09:33:40;;;;;;;4.15;1.75;;;21.70;42.90;;;;;;5095927;28;20099;-82
2023/05/31 09:36:06;;;;;;;19.27;4.03;;;21.60;41.00;;;;;;5073446;28;20020;-81
2023/05/31 09:38:36;;;;;;;3.20;1.48;;;21.60;41.90;;;;;;5066207;28;20021;-80
2023/05/31 09:41:20;;;;;;;1.55;1.45;;;21.80;42.40;;;;;;5075706;28;20074;-80
2023/05/31 09:43:50;;;;;;;6.43;2.45;;;22.10;41.50;;;;;;5081693;28;20077;-80
2023/05/31 09:46:17;;;;;;;2.75;1.73;;;22.00;42.00;;;;;;5066570;28;20024;-80
2023/05/31 09:48:44;;;;;;;7.50;2.70;;;21.80;42.80;;;;;;5082159;28;20051;-80
2023/05/31 09:51:11;;;;;;;3.90;1.92;;;21.40;42.80;;;;;;5077392;28;20426;-80
2023/05/31 09:53:43;;;;;;;2.85;2.25;;;21.40;42.80;;;;;;5068391;28;20044;-79
2023/05/31 09:56:17;;;;;;;7.22;2.17;;;21.40;42.80;;;;;;5075256;28;20035;-80
2023/05/31 09:58:43;;;;;;;3.90;2.15;;;21.70;42.50;;;;;;5095228;28;20020;-80
2023/05/31 10:01:09;;;;;;;4.07;1.85;;;21.60;42.30;;;;;;5094722;28;20480;-79
2023/05/31 10:03:36;;;;;;;2.25;1.90;;;21.60;42.50;;;;;;5094507;28;20059;-79
2023/05/31 10:06:02;;;;;;;9.13;2.40;;;21.80;42.50;;;;;;5067812;28;20024;-80
2023/05/31 10:08:30;;;;;;;3.53;2.10;;;21.90;41.50;;;;;;5091915;28;20028;-80
2023/05/31 10:10:59;;;;;;;2.65;2.00;;;22.00;41.10;;;;;;5076009;28;20136;-80
2023/05/31 10:13:30;;;;;;;3.08;1.90;;;22.20;40.80;;;;;;5072947;28;20042;-80
2023/05/31 10:15:59;;;;;;;4.60;2.17;;;22.40;41.40;;;;;;5094451;28;20028;-79
2023/05/31 10:18:32;;;;;;;5.30;2.08;;;22.50;42.40;;;;;;5066046;28;20017;-80
2023/05/31 10:21:07;;;;;;;4.13;2.00;;;22.70;42.10;;;;;;5058035;28;20037;-80
2023/05/31 10:23:41;;;;;;;3.92;2.08;;;22.70;41.70;;;;;;5060984;28;20595;-79
2023/05/31 10:26:17;;;;;;;6.53;2.53;;;22.30;43.30;;;;;;5087447;28;20024;-80
2023/05/31 10:28:51;;;;;;;5.22;2.03;;;22.20;43.00;;;;;;5076642;28;20054;-79
2023/05/31 10:31:21;;;;;;;3.97;1.80;;;22.20;43.60;;;;;;5065222;28;20089;-79
2023/05/31 10:33:53;;;;;;;4.47;1.90;;;22.30;43.40;;;;;;5092135;28;20028;-80
2023/05/31 10:36:19;;;;;;;;;;;22.60;43.10;;;;;;5062843;28;20048;-80
2023/05/31 10:39:05;;;;;;;2.95;2.00;;;22.90;42.40;;;;;;5085097;28;19954;-80
2023/05/31 10:41:40;;;;;;;4.22;2.65;;;23.00;41.40;;;;;;5078933;28;20389;-82
2023/05/31 10:44:17;;;;;;;4.43;2.55;;;22.90;40.50;;;;;;5075006;28;20111;-80
2023/05/31 10:46:48;;;;;;;3.30;2.42;;;22.90;41.30;;;;;;5074973;28;20432;-80
2023/05/31 10:49:15;;;;;;;4.53;2.50;;;22.40;42.10;;;;;;5074878;28;20032;-80
2023/05/31 10:51:45;;;;;;;3.97;2.40;;;22.10;42.90;;;;;;5074768;28;20029;-80
2023/05/31 10:54:21;;;;;;;10.38;2.78;;;22.10;42.70;;;;;;5057193;28;20394;-79
2023/05/31 10:56:54;;;;;;;6.95;6.13;;;22.30;42.80;;;;;;5059470;28;20017;-80
2023/05/31 10:59:19;;;;;;;7.82;5.22;;;22.20;43.10;;;;;;5076546;28;20027;-80
2023/05/31 11:01:45;;;;;;;4.30;3.55;;;22.50;43.60;;;;;;5076438;28;20034;-80
2023/05/31 11:04:25;;;;;;;2.53;2.00;;;22.70;42.40;;;;;;5094514;28;20072;-81
2023/05/31 11:07:14;;;;;;;4.80;2.20;;;23.00;41.80;;;;;;5094426;28;20027;-80
2023/05/31 11:09:42;;;;;;;4.80;1.90;;;23.00;40.70;;;;;;5076275;28;20106;-79
2023/05/31 11:12:12;;;;;;;3.60;1.88;;;22.60;42.60;;;;;;5093272;28;20016;-81
2023/05/31 11:14:38;;;;;;;5.82;1.80;;;22.20;42.60;;;;;;5076226;28;20023;-81
2023/05/31 11:17:04;;;;;;;2.72;1.60;;;22.10;43.10;;;;;;5094199;28;20401;-79
2023/05/31 11:19:31;;;;;;;11.23;2.20;;;22.20;43.00;;;;;;5072762;28;20056;-80
2023/05/31 11:22:05;;;;;;;3.53;1.98;;;22.20;42.00;;;;;;5083117;28;20020;-80
2023/05/31 11:24:38;;;;;;;2.53;1.77;;;22.20;42.30;;;;;;5083027;28;20099;-80
2023/05/31 11:27:06;;;;;;;4.05;1.73;;;22.50;41.80;;;;;;5086191;28;20028;-81
2023/05/31 11:29:44;;;;;;;2.70;1.90;;;22.70;42.20;;;;;;5094244;28;20081;-79
2023/05/31 11:32:10;;;;;;;6.18;2.05;;;23.00;41.50;;;;;;5072655;28;20039;-80
2023/05/31 11:34:53;;;;;;;6.90;2.40;;;23.10;40.20;;;;;;5082889;28;20099;-80
2023/05/31 11:37:23;;;;;;;2.30;1.88;;;23.20;39.50;;;;;;5083440;28;20020;-80
2023/05/31 11:39:49;;;;;;;4.82;2.25;;;23.30;40.40;;;;;;5064349;28;20427;-79
2023/05/31 11:42:16;;;;;;;6.85;2.67;;;23.50;40.90;;;;;;5066451;28;20507;-81
2023/05/31 11:44:43;;;;;;;5.18;1.63;;;23.50;40.70;;;;;;5085296;28;20031;-80
2023/05/31 11:47:11;;;;;;;3.20;1.63;;;23.60;40.80;;;;;;5092931;28;20028;-80
2023/05/31 11:49:37;;;;;;;4.57;1.63;;;23.70;40.40;;;;;;5075403;28;20043;-80
2023/05/31 11:52:04;;;;;;;5.03;4.55;;;23.80;39.80;;;;;;5093574;28;20032;-79
2023/05/31 11:54:32;;;;;;;2.60;1.30;;;23.40;39.40;;;;;;5092558;28;20069;-79
2023/05/31 11:57:03;;;;;;;3.42;1.80;;;23.40;39.30;;;;;;5092595;28;20164;-80
2023/05/31 11:59:33;;;;;;;2.40;1.30;;;22.90;39.10;;;;;;5088123;28;20020;-79
2023/05/31 12:02:03;;;;;;;3.88;1.73;;;22.70;39.40;;;;;;5061434;28;20382;-79
2023/05/31 12:04:41;;;;;;;4.10;1.73;;;22.50;39.20;;;;;;5079409;28;20035;-79
2023/05/31 12:07:11;;;;;;;5.47;1.83;;;22.60;39.20;;;;;;5082071;28;20036;-80
2023/05/31 12:09:36;;;;;;;9.57;2.28;;;22.80;39.20;;;;;;5077105;28;20044;-81
2023/05/31 12:12:05;;;;;;;5.80;1.63;;;23.10;39.90;;;;;;5074020;28;20113;-80
2023/05/31 12:14:31;;;;;;;3.65;1.52;;;23.20;38.90;;;;;;5093221;28;20032;-80
2023/05/31 12:17:03;;;;;;;1.48;1.38;;;23.20;39.00;;;;;;5074995;28;20024;-80
2023/05/31 12:19:28;;;;;;;76.30;69.20;;;23.20;38.90;;;;;;5075125;28;20023;-80
2023/05/31 12:21:54;;;;;;;6.63;2.72;;;23.30;38.90;;;;;;5074971;28;20024;-80
2023/05/31 12:24:20;;;;;;;4.15;1.77;;;23.40;39.30;;;;;;5074765;28;20381;-80
2023/05/31 12:26:48;;;;;;;6.03;2.45;;;23.50;39.70;;;;;;5092590;28;20031;-80
2023/05/31 12:29:18;;;;;;;4.72;1.90;;;23.50;39.70;;;;;;5093294;28;20035;-79
2023/05/31 12:31:45;;;;;;;3.95;1.67;;;23.60;39.40;;;;;;5075167;28;20020;-80
2023/05/31 12:34:13;;;;;;;3.83;2.05;;;23.60;38.60;;;;;;5092809;28;20024;-81
2023/05/31 12:36:40;;;;;;;7.07;2.63;;;23.70;39.60;;;;;;5075157;28;20066;-81
2023/05/31 12:39:14;;;;;;;2.90;1.70;;;23.90;39.40;;;;;;5075218;28;20062;-79
2023/05/31 12:41:43;;;;;;;5.28;2.22;;;23.90;38.90;;;;;;5092645;28;20032;-82
2023/05/31 12:44:09;;;;;;;3.78;1.80;;;23.90;39.60;;;;;;5093445;28;20027;-82
2023/05/31 12:46:45;;;;;;;6.45;2.10;;;23.80;39.30;;;;;;5075220;28;20024;-83
2023/05/31 12:49:30;;;;;;;4.20;1.30;;;23.80;39.20;;;;;;5093112;28;20039;-79
2023/05/31 12:52:04;;;;;;;1.48;1.25;;;23.50;37.20;;;;;;5074807;28;20024;-81